sensor_id;sensor_type;location;lat;lon;timestamp;temperature;humidity
5192;DHT22;2615;44.524;11.284;2022-08-19T18:14:08;25.60;51.60
5192;DHT22;2615;44.524;11.284;2022-08-19T18:16:38;26.30;55.90
5192;DHT22;2615;44.524;11.284;2022-08-19T18:19:06;26.30;55.70
5192;DHT22;2615;44.524;11.284;2022-08-19T18:21:34;26.40;55.50
5192;DHT22;2615;44.524;11.284;2022-08-19T18:24:05;26.40;55.40
5192;DHT22;2615;44.524;11.284;2022-08-19T18:26:33;26.40;55.50
5192;DHT22;2615;44.524;11.284;2022-08-19T18:29:01;26.40;55.40
5192;DHT22;2615;44.524;11.284;2022-08-19T18:31:31;26.50;55.40
5192;DHT22;2615;44.524;11.284;2022-08-19T18:34:01;26.50;55.20
5192;DHT22;2615;44.524;11.284;2022-08-19T18:36:43;26.50;55.20
5192;DHT22;2615;44.524;11.284;2022-08-19T18:39:31;26.40;55.10
5192;DHT22;2615;44.524;11.284;2022-08-19T18:42:17;26.30;55.10
5192;DHT22;2615;44.524;11.284;2022-08-19T18:45:04;26.20;55.20
5192;DHT22;2615;44.524;11.284;2022-08-19T18:47:51;26.20;55.40
5192;DHT22;2615;44.524;11.284;2022-08-19T18:50:55;26.20;55.50
5192;DHT22;2615;44.524;11.284;2022-08-19T18:53:26;26.20;55.50
5192;DHT22;2615;44.524;11.284;2022-08-19T18:55:55;26.10;55.50
5192;DHT22;2615;44.524;11.284;2022-08-19T18:58:24;26.10;56.00
5192;DHT22;2615;44.524;11.284;2022-08-19T19:01:04;26.10;55.50
5192;DHT22;2615;44.524;11.284;2022-08-19T19:03:40;26.10;55.50
5192;DHT22;2615;44.524;11.284;2022-08-19T19:06:12;26.00;55.60
5192;DHT22;2615;44.524;11.284;2022-08-19T19:08:41;26.00;55.60
5192;DHT22;2615;44.524;11.284;2022-08-19T19:11:09;25.90;55.60
5192;DHT22;2615;44.524;11.284;2022-08-19T19:13:38;25.90;55.70
5192;DHT22;2615;44.524;11.284;2022-08-19T19:16:07;25.80;55.80
5192;DHT22;2615;44.524;11.284;2022-08-19T19:18:39;25.80;55.90
5192;DHT22;2615;44.524;11.284;2022-08-19T19:21:08;25.80;55.90
5192;DHT22;2615;44.524;11.284;2022-08-19T19:23:37;25.80;55.80
5192;DHT22;2615;44.524;11.284;2022-08-19T19:26:07;25.80;56.00
5192;DHT22;2615;44.524;11.284;2022-08-19T19:28:37;25.70;56.10
5192;DHT22;2615;44.524;11.284;2022-08-19T19:31:12;25.70;56.10
5192;DHT22;2615;44.524;11.284;2022-08-19T19:33:43;25.70;56.10
5192;DHT22;2615;44.524;11.284;2022-08-19T19:36:12;25.70;56.00
5192;DHT22;2615;44.524;11.284;2022-08-19T19:38:40;25.60;56.20
5192;DHT22;2615;44.524;11.284;2022-08-19T19:41:16;25.50;56.40
5192;DHT22;2615;44.524;11.284;2022-08-19T19:43:45;25.40;57.10
5192;DHT22;2615;44.524;11.284;2022-08-19T19:46:31;25.40;56.60
5192;DHT22;2615;44.524;11.284;2022-08-19T19:49:01;25.40;56.50
5192;DHT22;2615;44.524;11.284;2022-08-19T19:51:30;25.50;56.40
5192;DHT22;2615;44.524;11.284;2022-08-19T19:54:04;25.50;56.30
5192;DHT22;2615;44.524;11.284;2022-08-19T19:56:32;25.50;56.20
5192;DHT22;2615;44.524;11.284;2022-08-19T19:59:00;25.50;56.30
5192;DHT22;2615;44.524;11.284;2022-08-19T20:01:29;25.40;56.20
5192;DHT22;2615;44.524;11.284;2022-08-19T20:04:00;25.40;56.40
5192;DHT22;2615;44.524;11.284;2022-08-19T20:06:28;25.30;56.40
5192;DHT22;2615;44.524;11.284;2022-08-19T20:08:57;25.20;56.50
5192;DHT22;2615;44.524;11.284;2022-08-19T20:11:39;25.20;56.80
5192;DHT22;2615;44.524;11.284;2022-08-19T20:14:09;25.10;56.90
5192;DHT22;2615;44.524;11.284;2022-08-19T20:16:39;25.00;57.00
5192;DHT22;2615;44.524;11.284;2022-08-19T20:19:13;25.00;57.10
5192;DHT22;2615;44.524;11.284;2022-08-19T20:21:42;25.00;57.20
5192;DHT22;2615;44.524;11.284;2022-08-19T20:24:18;24.90;57.30
5192;DHT22;2615;44.524;11.284;2022-08-19T20:26:47;24.90;57.40
5192;DHT22;2615;44.524;11.284;2022-08-19T20:29:20;24.90;57.50
5192;DHT22;2615;44.524;11.284;2022-08-19T20:32:05;24.80;57.50
5192;DHT22;2615;44.524;11.284;2022-08-19T20:34:35;24.80;57.50
5192;DHT22;2615;44.524;11.284;2022-08-19T20:37:03;24.80;57.70
5192;DHT22;2615;44.524;11.284;2022-08-19T20:39:31;24.80;57.80
5192;DHT22;2615;44.524;11.284;2022-08-19T20:42:00;24.70;57.80
5192;DHT22;2615;44.524;11.284;2022-08-19T20:44:28;24.70;57.90
5192;DHT22;2615;44.524;11.284;2022-08-19T20:46:56;24.70;58.10
5192;DHT22;2615;44.524;11.284;2022-08-19T20:49:29;24.70;58.20
5192;DHT22;2615;44.524;11.284;2022-08-19T20:51:59;24.70;58.20
5192;DHT22;2615;44.524;11.284;2022-08-19T20:54:27;24.70;58.20
5192;DHT22;2615;44.524;11.284;2022-08-19T20:56:55;24.70;58.20
5192;DHT22;2615;44.524;11.284;2022-08-19T20:59:23;24.70;58.20
5192;DHT22;2615;44.524;11.284;2022-08-19T21:01:53;24.70;58.20
5192;DHT22;2615;44.524;11.284;2022-08-19T21:04:22;24.70;58.20
5192;DHT22;2615;44.524;11.284;2022-08-19T21:06:50;24.60;58.10
5192;DHT22;2615;44.524;11.284;2022-08-19T21:09:20;24.50;58.00
5192;DHT22;2615;44.524;11.284;2022-08-19T21:11:49;24.50;58.10
5192;DHT22;2615;44.524;11.284;2022-08-19T21:14:17;24.40;58.20
5192;DHT22;2615;44.524;11.284;2022-08-19T21:16:46;24.40;58.30
5192;DHT22;2615;44.524;11.284;2022-08-19T21:19:15;24.40;58.40
5192;DHT22;2615;44.524;11.284;2022-08-19T21:21:49;24.30;58.40
5192;DHT22;2615;44.524;11.284;2022-08-19T21:24:17;24.30;58.50
5192;DHT22;2615;44.524;11.284;2022-08-19T21:26:47;24.30;58.60
5192;DHT22;2615;44.524;11.284;2022-08-19T21:29:17;24.30;58.70
5192;DHT22;2615;44.524;11.284;2022-08-19T21:31:45;24.30;58.70
5192;DHT22;2615;44.524;11.284;2022-08-19T21:34:14;24.30;58.80
5192;DHT22;2615;44.524;11.284;2022-08-19T21:36:43;24.30;58.80
5192;DHT22;2615;44.524;11.284;2022-08-19T21:39:11;24.30;58.80
5192;DHT22;2615;44.524;11.284;2022-08-19T21:41:39;24.30;58.80
5192;DHT22;2615;44.524;11.284;2022-08-19T21:44:11;24.30;58.80
5192;DHT22;2615;44.524;11.284;2022-08-19T21:46:39;24.30;58.80
5192;DHT22;2615;44.524;11.284;2022-08-19T21:49:07;24.30;58.80
5192;DHT22;2615;44.524;11.284;2022-08-19T21:51:35;24.30;58.80
5192;DHT22;2615;44.524;11.284;2022-08-19T21:54:04;24.30;58.70
5192;DHT22;2615;44.524;11.284;2022-08-19T21:56:32;24.30;58.60
5192;DHT22;2615;44.524;11.284;2022-08-19T21:59:00;24.30;58.70
5192;DHT22;2615;44.524;11.284;2022-08-19T22:01:30;24.30;58.70
5192;DHT22;2615;44.524;11.284;2022-08-19T22:03:58;24.20;58.60
5192;DHT22;2615;44.524;11.284;2022-08-19T22:06:26;24.20;58.60
5192;DHT22;2615;44.524;11.284;2022-08-19T22:08:54;24.20;58.50
5192;DHT22;2615;44.524;11.284;2022-08-19T22:11:23;24.20;58.50
5192;DHT22;2615;44.524;11.284;2022-08-19T22:13:52;24.20;58.60
5192;DHT22;2615;44.524;11.284;2022-08-19T22:16:22;24.20;58.60
5192;DHT22;2615;44.524;11.284;2022-08-19T22:18:52;24.20;58.60
5192;DHT22;2615;44.524;11.284;2022-08-19T22:21:20;24.10;58.40
5192;DHT22;2615;44.524;11.284;2022-08-19T22:24:07;24.10;58.50
5192;DHT22;2615;44.524;11.284;2022-08-19T22:26:35;24.10;58.70
5192;DHT22;2615;44.524;11.284;2022-08-19T22:29:03;24.10;58.70
5192;DHT22;2615;44.524;11.284;2022-08-19T22:31:31;24.10;58.80
5192;DHT22;2615;44.524;11.284;2022-08-19T22:34:03;24.10;58.80
5192;DHT22;2615;44.524;11.284;2022-08-19T22:36:32;24.10;58.80
5192;DHT22;2615;44.524;11.284;2022-08-19T22:39:01;24.10;58.80
5192;DHT22;2615;44.524;11.284;2022-08-19T22:41:30;24.10;58.90
5192;DHT22;2615;44.524;11.284;2022-08-19T22:43:59;24.10;58.90
5192;DHT22;2615;44.524;11.284;2022-08-19T22:46:27;24.10;59.00
5192;DHT22;2615;44.524;11.284;2022-08-19T22:48:59;24.10;59.00
5192;DHT22;2615;44.524;11.284;2022-08-19T22:51:29;24.10;59.10
5192;DHT22;2615;44.524;11.284;2022-08-19T22:54:15;24.00;59.10
5192;DHT22;2615;44.524;11.284;2022-08-19T22:56:44;24.00;59.10
5192;DHT22;2615;44.524;11.284;2022-08-19T22:59:12;24.00;59.20
5192;DHT22;2615;44.524;11.284;2022-08-19T23:01:40;24.10;59.30
5192;DHT22;2615;44.524;11.284;2022-08-19T23:04:09;24.10;59.40
5192;DHT22;2615;44.524;11.284;2022-08-19T23:06:38;24.10;59.40
5192;DHT22;2615;44.524;11.284;2022-08-19T23:09:08;24.10;59.40
5192;DHT22;2615;44.524;11.284;2022-08-19T23:11:42;24.10;59.40
5192;DHT22;2615;44.524;11.284;2022-08-19T23:14:12;24.10;59.40
5192;DHT22;2615;44.524;11.284;2022-08-19T23:16:40;24.10;59.50
5192;DHT22;2615;44.524;11.284;2022-08-19T23:19:17;24.10;59.50
5192;DHT22;2615;44.524;11.284;2022-08-19T23:21:47;24.10;59.50
5192;DHT22;2615;44.524;11.284;2022-08-19T23:24:15;24.10;59.50
5192;DHT22;2615;44.524;11.284;2022-08-19T23:26:43;24.00;59.50
5192;DHT22;2615;44.524;11.284;2022-08-19T23:29:26;24.00;59.60
5192;DHT22;2615;44.524;11.284;2022-08-19T23:32:14;23.90;59.60
5192;DHT22;2615;44.524;11.284;2022-08-19T23:34:43;23.90;59.70
5192;DHT22;2615;44.524;11.284;2022-08-19T23:37:12;23.90;59.70
5192;DHT22;2615;44.524;11.284;2022-08-19T23:39:41;24.00;59.90
5192;DHT22;2615;44.524;11.284;2022-08-19T23:42:11;24.00;59.80
5192;DHT22;2615;44.524;11.284;2022-08-19T23:44:39;23.90;59.70
5192;DHT22;2615;44.524;11.284;2022-08-19T23:47:19;23.90;59.80
5192;DHT22;2615;44.524;11.284;2022-08-19T23:49:47;23.90;59.90
5192;DHT22;2615;44.524;11.284;2022-08-19T23:52:18;23.90;59.90
5192;DHT22;2615;44.524;11.284;2022-08-19T23:54:46;23.90;59.90
5192;DHT22;2615;44.524;11.284;2022-08-19T23:57:14;23.90;60.00
5192;DHT22;2615;44.524;11.284;2022-08-19T23:59:42;23.90;60.00
